Time;durP1;ratioP1;P1;durP2;ratioP2;P2;SDS_P1;SDS_P2;PMS_P1;PMS_P2;Temp;Humidity;BMP_temperature;BMP_pressure;BME280_temperature;BME280_humidity;BME280_pressure;Samples;Min_cycle;Max_cycle;Signal;HPM_P1;HPM_P2
2023/10/03 00:01:23;;;;;;;9.43;3.90;;;;;;;15.98;96.13;99488.09;4467921;32;20359;-78
2023/10/03 00:03:53;;;;;;;15.63;3.50;;;;;;;15.95;96.44;99489.22;4468236;32;20096;-78
2023/10/03 00:06:21;;;;;;;8.52;3.17;;;;;;;15.98;96.63;99489.91;4467982;32;20519;-78
2023/10/03 00:08:48;;;;;;;9.75;3.92;;;;;;;15.91;96.67;99489.69;4467963;32;20097;-78
2023/10/03 00:11:20;;;;;;;9.18;3.37;;;;;;;15.94;96.35;99490.22;4467962;32;20105;-78
2023/10/03 00:13:50;;;;;;;11.43;3.45;;;;;;;15.88;96.83;99485.56;4468012;32;20110;-78
2023/10/03 00:16:18;;;;;;;9.60;3.20;;;;;;;15.87;96.68;99480.44;4476757;32;20126;-78
2023/10/03 00:18:45;;;;;;;7.45;3.10;;;;;;;15.85;96.54;99485.00;4483628;31;20097;-78
2023/10/03 00:21:12;;;;;;;6.80;3.20;;;;;;;15.81;96.59;99478.41;4483317;31;20092;-78
2023/10/03 00:23:40;;;;;;;6.65;3.35;;;;;;;15.83;96.54;99479.06;4483435;32;20100;-78
2023/10/03 00:26:15;;;;;;;8.20;3.28;;;;;;;15.83;96.33;99474.59;4483405;31;20167;-78
2023/10/03 00:28:44;;;;;;;11.15;3.30;;;;;;;15.81;96.38;99481.88;4484700;31;20499;-78
2023/10/03 00:31:13;;;;;;;7.20;3.47;;;;;;;15.80;96.40;99472.28;4485625;31;20101;-78
2023/10/03 00:33:43;;;;;;;7.45;2.95;;;;;;;15.84;95.94;99462.25;4485805;31;20089;-78
2023/10/03 00:36:17;;;;;;;9.30;3.60;;;;;;;15.73;96.63;99465.91;4485560;31;20466;-78
2023/10/03 00:38:45;;;;;;;7.28;3.47;;;;;;;15.63;96.92;99460.72;4485611;31;20109;-78
2023/10/03 00:41:13;;;;;;;8.45;3.40;;;;;;;15.66;96.95;99457.78;4485606;32;20119;-78
2023/10/03 00:44:04;;;;;;;10.32;3.53;;;;;;;15.66;96.87;99452.47;4485427;32;20126;-78
2023/10/03 00:46:33;;;;;;;5.20;3.05;;;;;;;15.67;96.65;99446.22;4485638;31;20084;-78
2023/10/03 00:49:11;;;;;;;9.85;3.60;;;;;;;15.63;97.44;99450.16;4485486;31;20149;-78
2023/10/03 00:51:40;;;;;;;10.77;3.90;;;;;;;15.50;98.01;99439.16;4484469;32;20123;-78
2023/10/03 00:54:09;;;;;;;11.95;3.60;;;;;;;15.50;97.68;99444.44;4475272;31;20116;-78
2023/10/03 00:56:37;;;;;;;8.35;2.83;;;;;;;15.44;98.28;99441.41;4468726;32;20097;-78
2023/10/03 00:59:08;;;;;;;16.15;3.70;;;;;;;15.42;98.19;99443.38;4469835;32;20093;-78
2023/10/03 01:01:37;;;;;;;10.13;3.42;;;;;;;15.46;97.78;99443.91;4469752;32;20138;-78
2023/10/03 01:04:09;;;;;;;16.42;3.30;;;;;;;15.44;98.05;99441.41;4469842;32;20523;-78
2023/10/03 01:06:38;;;;;;;6.80;3.13;;;;;;;15.44;97.82;99433.50;4469895;32;20510;-78
2023/10/03 01:09:14;;;;;;;7.90;3.42;;;;;;;15.43;97.99;99431.84;4469989;32;20576;-78
2023/10/03 01:11:42;;;;;;;11.60;3.42;;;;;;;15.39;98.18;99429.66;4469873;32;20115;-78
2023/10/03 01:14:09;;;;;;;13.82;3.42;;;;;;;15.36;98.02;99429.94;4469725;32;20092;-78
2023/10/03 01:16:37;;;;;;;10.77;4.07;;;;;;;15.40;97.85;99434.78;4480613;32;20484;-78
2023/10/03 01:19:13;;;;;;;12.45;3.60;;;;;;;15.38;97.71;99427.97;4485271;31;20092;-78
2023/10/03 01:21:49;;;;;;;11.07;3.62;;;;;;;15.34;97.56;99419.53;4485706;31;20085;-78
2023/10/03 01:24:20;;;;;;;11.12;4.05;;;;;;;15.31;97.92;99419.84;4485541;31;20515;-78
2023/10/03 01:26:48;;;;;;;11.18;3.50;;;;;;;15.27;98.21;99424.59;4485541;31;20107;-78
2023/10/03 01:29:16;;;;;;;9.60;3.58;;;;;;;15.33;97.51;99422.34;4485378;31;20131;-78
2023/10/03 01:31:47;;;;;;;6.32;3.10;;;;;;;15.31;97.59;99419.03;4485368;31;20134;-78
2023/10/03 01:34:15;;;;;;;10.13;3.50;;;;;;;15.25;97.86;99421.28;4485557;31;20101;-78
2023/10/03 01:36:47;;;;;;;9.57;3.08;;;;;;;15.16;98.48;99426.66;4485328;31;20141;-78
2023/10/03 01:39:16;;;;;;;7.30;3.20;;;;;;;15.19;98.06;99427.16;4484440;31;20095;-78
2023/10/03 01:41:44;;;;;;;10.98;3.25;;;;;;;15.07;98.41;99413.34;4485079;31;20122;-78
2023/10/03 01:44:11;;;;;;;9.65;3.30;;;;;;;15.14;98.44;99415.38;4485565;31;20768;-78
2023/10/03 01:46:39;;;;;;;15.02;3.83;;;;;;;15.20;97.82;99406.87;4485321;31;20092;-78
2023/10/03 01:49:06;;;;;;;5.53;2.97;;;;;;;15.20;97.65;99410.34;4485250;32;20442;-78
2023/10/03 01:51:34;;;;;;;8.52;3.40;;;;;;;15.14;97.97;99408.31;4485358;32;20119;-78
2023/10/03 01:54:02;;;;;;;9.32;3.22;;;;;;;15.20;97.82;99409.50;4475845;32;20153;-78
2023/10/03 01:56:30;;;;;;;7.30;3.67;;;;;;;15.23;97.73;99406.56;4469563;32;20533;-78
2023/10/03 01:59:00;;;;;;;12.10;3.37;;;;;;;15.12;98.34;99401.53;4469617;32;20092;-78
2023/10/03 02:01:29;;;;;;;6.57;2.80;;;;;;;15.12;98.58;99404.16;4469763;32;20084;-78
2023/10/03 02:03:59;;;;;;;13.70;3.45;;;;;;;15.02;98.92;99405.06;4469411;32;20092;-78
2023/10/03 02:06:27;;;;;;;9.57;3.70;;;;;;;15.04;99.15;99399.66;4469427;32;20100;-78
2023/10/03 02:08:56;;;;;;;9.40;3.40;;;;;;;15.03;99.45;99396.19;4469354;32;20142;-78
2023/10/03 02:11:26;;;;;;;8.40;3.65;;;;;;;14.97;100.00;99393.28;4469782;32;20092;-78
2023/10/03 02:13:54;;;;;;;10.25;3.97;;;;;;;14.83;100.00;99390.19;4469530;32;20093;-78
2023/10/03 02:16:22;;;;;;;18.67;4.20;;;;;;;14.81;100.00;99386.06;4478698;32;20122;-78
2023/10/03 02:18:49;;;;;;;8.15;3.40;;;;;;;14.81;100.00;99393.97;4485064;31;20093;-78
2023/10/03 02:21:17;;;;;;;10.35;3.90;;;;;;;14.73;100.00;99390.28;4485087;32;20497;-78
2023/10/03 02:23:47;;;;;;;8.23;3.55;;;;;;;14.62;100.00;99385.19;4484773;32;20088;-78
2023/10/03 02:26:16;;;;;;;7.75;3.78;;;;;;;14.64;100.00;99385.88;4485016;32;20149;-78
2023/10/03 02:28:44;;;;;;;10.73;3.42;;;;;;;14.57;100.00;99379.50;4484638;31;20088;-78
2023/10/03 02:31:11;;;;;;;10.48;3.72;;;;;;;14.63;100.00;99384.22;4484887;31;20172;-78
2023/10/03 02:33:41;;;;;;;8.20;3.47;;;;;;;14.48;100.00;99380.41;4484764;32;20144;-78
2023/10/03 02:36:10;;;;;;;11.25;3.65;;;;;;;14.49;100.00;99382.06;4484827;31;20606;-78
2023/10/03 02:38:38;;;;;;;8.93;3.87;;;;;;;14.49;100.00;99372.34;4484693;31;20159;-78
2023/10/03 02:41:06;;;;;;;8.88;3.58;;;;;;;14.43;100.00;99378.19;4484937;31;20504;-78
2023/10/03 02:43:38;;;;;;;10.68;3.78;;;;;;;14.49;100.00;99371.53;4485260;31;20171;-78
2023/10/03 02:46:12;;;;;;;6.78;3.87;;;;;;;14.42;100.00;99367.81;4485205;31;20111;-78
2023/10/03 02:48:41;;;;;;;12.90;4.75;;;;;;;14.34;100.00;99372.00;4485082;31;20089;-78
2023/10/03 02:51:09;;;;;;;9.52;4.43;;;;;;;14.30;100.00;99373.25;4484229;32;20555;-78
2023/10/03 02:53:37;;;;;;;7.72;3.70;;;;;;;14.38;100.00;99369.88;4477871;31;20447;-78
2023/10/03 02:56:05;;;;;;;10.15;4.32;;;;;;;14.36;100.00;99369.22;4469072;32;20092;-78
2023/10/03 02:58:32;;;;;;;7.70;3.30;;;;;;;14.28;100.00;99374.41;4468816;32;20105;-78
2023/10/03 03:00:59;;;;;;;8.40;4.37;;;;;;;14.29;100.00;99371.62;4469025;32;20104;-78
2023/10/03 03:03:30;;;;;;;8.32;3.60;;;;;;;14.22;100.00;99375.81;4468931;32;20442;-78
2023/10/03 03:05:59;;;;;;;10.68;3.87;;;;;;;14.19;100.00;99376.09;4468937;32;20077;-78
2023/10/03 03:08:30;;;;;;;11.35;4.03;;;;;;;14.11;100.00;99368.91;4469031;32;20088;-78
2023/10/03 03:11:00;;;;;;;11.35;3.58;;;;;;;14.27;100.00;99365.62;4468944;32;20476;-78
2023/10/03 03:13:31;;;;;;;13.07;3.90;;;;;;;14.32;100.00;99360.78;4468972;32;20089;-78
2023/10/03 03:16:00;;;;;;;9.93;3.72;;;;;;;14.42;100.00;99351.97;4475506;32;20460;-78
2023/10/03 03:18:40;;;;;;;11.85;3.83;;;;;;;14.36;100.00;99367.41;4484450;31;20532;-78
2023/10/03 03:21:13;;;;;;;12.98;3.90;;;;;;;14.26;100.00;99357.88;4484293;31;20110;-78
2023/10/03 03:23:52;;;;;;;7.68;3.83;;;;;;;14.33;100.00;99351.06;4484551;31;20119;-78
2023/10/03 03:26:21;;;;;;;7.30;3.67;;;;;;;14.42;99.74;99350.16;4484342;31;20080;-78
2023/10/03 03:28:50;;;;;;;18.15;5.15;;;;;;;14.32;100.00;99360.78;4484393;31;20126;-78
2023/10/03 03:31:22;;;;;;;14.57;4.37;;;;;;;14.27;100.00;99359.56;4484238;32;20088;-78
2023/10/03 03:33:52;;;;;;;15.23;4.47;;;;;;;14.20;100.00;99356.66;4484512;31;20115;-78
2023/10/03 03:36:23;;;;;;;15.48;4.32;;;;;;;14.20;100.00;99352.22;4484193;31;20118;-78
2023/10/03 03:38:54;;;;;;;10.90;3.87;;;;;;;14.14;100.00;99351.97;4484497;31;20157;-78
2023/10/03 03:41:22;;;;;;;11.85;4.35;;;;;;;14.11;100.00;99357.53;4484056;32;20165;-78
2023/10/03 03:43:50;;;;;;;12.77;4.80;;;;;;;14.22;100.00;99346.81;4484047;32;20096;-78
2023/10/03 03:46:19;;;;;;;10.38;4.05;;;;;;;14.31;100.00;99351.19;4484346;31;20499;-78
2023/10/03 03:48:46;;;;;;;13.85;4.53;;;;;;;14.21;100.00;99342.50;4484130;31;20089;-78
2023/10/03 03:51:16;;;;;;;13.18;5.25;;;;;;;14.16;100.00;99350.03;4483876;31;20108;-78
2023/10/03 03:53:44;;;;;;;9.40;4.00;;;;;;;14.12;100.00;99354.75;4476465;31;20123;-78
2023/10/03 03:56:16;;;;;;;7.90;3.78;;;;;;;14.08;100.00;99352.56;4468553;32;20105;-78
2023/10/03 03:58:48;;;;;;;12.00;4.22;;;;;;;14.01;100.00;99341.78;4468471;32;20130;-78
2023/10/03 04:01:18;;;;;;;8.70;3.97;;;;;;;13.94;100.00;99345.94;4468155;32;20085;-78
2023/10/03 04:03:51;;;;;;;9.98;4.28;;;;;;;13.76;100.00;99344.09;4469696;32;20119;-76
2023/10/03 04:06:20;;;;;;;9.77;3.92;;;;;;;13.81;100.00;99338.37;4469717;32;20093;-76
2023/10/03 04:08:49;;;;;;;10.90;4.25;;;;;;;13.86;100.00;99343.22;4470387;32;20105;-76
2023/10/03 04:11:19;;;;;;;11.68;4.15;;;;;;;13.80;100.00;99340.19;4472074;32;20097;-80
2023/10/03 04:13:49;;;;;;;12.85;4.35;;;;;;;13.73;100.00;99340.91;4470129;32;20097;-78
2023/10/03 04:16:17;;;;;;;15.07;4.78;;;;;;;13.56;100.00;99332.75;4479211;32;20091;-79
2023/10/03 04:18:49;;;;;;;14.80;4.97;;;;;;;13.49;100.00;99336.97;4485669;31;20088;-79
2023/10/03 04:21:19;;;;;;;9.55;4.75;;;;;;;13.38;100.00;99330.03;4485644;31;20088;-79
2023/10/03 04:23:49;;;;;;;13.30;4.68;;;;;;;13.34;100.00;99330.44;4485800;31;20159;-78
2023/10/03 04:26:17;;;;;;;8.63;4.45;;;;;;;13.36;100.00;99329.34;4485657;31;20450;-76
2023/10/03 04:28:44;;;;;;;12.82;4.55;;;;;;;13.32;100.00;99326.16;4485967;31;20367;-76
2023/10/03 04:31:12;;;;;;;11.18;4.57;;;;;;;13.36;100.00;99331.16;4485398;31;20164;-76
2023/10/03 04:33:39;;;;;;;14.70;4.68;;;;;;;13.29;100.00;99336.09;4485582;32;20556;-75
2023/10/03 04:36:09;;;;;;;10.00;4.80;;;;;;;13.34;100.00;99327.81;4485289;31;20598;-75
2023/10/03 04:38:37;;;;;;;8.90;4.47;;;;;;;13.37;100.00;99327.53;4487683;31;20092;-75
2023/10/03 04:41:09;;;;;;;20.15;6.07;;;;;;;13.37;100.00;99325.75;4492980;31;20092;-75
2023/10/03 04:43:37;;;;;;;13.45;4.70;;;;;;;13.39;100.00;99331.69;4492932;31;20111;-75
2023/10/03 04:46:05;;;;;;;12.43;4.55;;;;;;;13.49;100.00;99327.25;4478474;31;20104;-75
2023/10/03 04:48:32;;;;;;;11.12;4.80;;;;;;;13.38;100.00;99329.19;4477041;32;20092;-75
2023/10/03 04:51:00;;;;;;;16.52;5.78;;;;;;;13.39;100.00;99331.69;4469563;32;20097;-75
2023/10/03 04:53:28;;;;;;;16.05;5.18;;;;;;;13.36;100.00;99331.16;4473889;32;20400;-75
2023/10/03 04:55:55;;;;;;;9.95;4.45;;;;;;;13.35;100.00;99335.56;4483719;31;20169;-78
2023/10/03 04:58:23;;;;;;;18.58;4.65;;;;;;;13.46;100.00;99321.44;4483945;31;20119;-78
2023/10/03 05:00:50;;;;;;;15.27;4.70;;;;;;;13.49;100.00;99331.69;4483481;31;20092;-79
2023/10/03 05:03:19;;;;;;;17.10;5.22;;;;;;;13.58;100.00;99328.19;4480254;32;20112;-78
2023/10/03 05:05:48;;;;;;;17.95;5.37;;;;;;;13.61;100.00;99327.06;4482481;32;20108;-79
2023/10/03 05:08:18;;;;;;;17.83;5.50;;;;;;;13.69;100.00;99315.81;4481439;31;20088;-78
2023/10/03 05:10:48;;;;;;;13.68;5.07;;;;;;;13.66;100.00;99316.97;4484539;31;20213;-78
2023/10/03 05:13:16;;;;;;;13.15;4.75;;;;;;;13.94;100.00;99323.06;4477455;31;20168;-80
2023/10/03 05:15:45;;;;;;;29.05;6.62;;;;;;;14.02;100.00;99328.47;4480236;31;20119;-79
2023/10/03 05:18:13;;;;;;;13.50;4.95;;;;;;;14.01;100.00;99328.59;4482794;31;20118;-78
2023/10/03 05:20:42;;;;;;;22.42;5.82;;;;;;;14.05;100.00;99337.03;4481362;32;20124;-74
2023/10/03 05:23:15;;;;;;;22.58;5.57;;;;;;;14.02;100.00;99328.47;4480081;31;20454;-79
2023/10/03 05:25:43;;;;;;;34.92;5.35;;;;;;;14.05;100.00;99326.50;4483904;31;20084;-78
2023/10/03 05:28:11;;;;;;;19.00;6.07;;;;;;;14.09;100.00;99331.31;4485209;31;20093;-79
2023/10/03 05:30:39;;;;;;;18.20;5.22;;;;;;;14.10;100.00;99329.53;4484828;31;20088;-79
2023/10/03 05:33:07;;;;;;;29.92;5.37;;;;;;;14.16;100.00;99331.59;4468513;31;20127;-79
2023/10/03 05:35:36;;;;;;;40.03;6.60;;;;;;;14.42;100.00;99333.53;4479950;32;20097;-79
2023/10/03 05:38:08;;;;;;;36.33;6.80;;;;;;;14.28;100.00;99327.78;4482872;31;20080;-78
2023/10/03 05:40:36;;;;;;;24.17;5.80;;;;;;;14.34;98.92;99332.47;4477626;32;20126;-79
2023/10/03 05:43:04;;;;;;;46.58;5.95;;;;;;;14.39;99.18;99329.38;4477103;32;20676;-79
2023/10/03 05:45:37;;;;;;;23.60;5.50;;;;;;;14.42;98.78;99334.34;4479910;31;20172;-79
2023/10/03 05:48:05;;;;;;;13.90;5.47;;;;;;;14.43;98.70;99336.03;4477678;31;20450;-80
2023/10/03 05:50:34;;;;;;;66.25;6.47;;;;;;;14.54;99.15;99337.63;4474772;32;20105;-80
2023/10/03 05:53:06;;;;;;;23.95;5.90;;;;;;;14.65;97.54;99329.50;4473369;31;20795;-78
2023/10/03 05:55:36;;;;;;;43.00;6.80;;;;;;;14.53;97.77;99338.59;4473663;32;20530;-80
2023/10/03 05:58:06;;;;;;;28.20;5.93;;;;;;;14.54;97.54;99335.81;4474926;31;20118;-79
2023/10/03 06:00:35;;;;;;;23.80;5.32;;;;;;;14.72;97.23;99338.50;4475752;32;20104;-78
2023/10/03 06:03:03;;;;;;;24.55;6.12;;;;;;;14.79;96.86;99341.38;4477470;31;20849;-80
2023/10/03 06:05:31;;;;;;;30.08;5.72;;;;;;;14.72;96.59;99346.41;4477464;32;20109;-81
2023/10/03 06:07:59;;;;;;;19.83;5.70;;;;;;;14.88;96.85;99347.53;4473099;32;20093;-84
2023/10/03 06:10:29;;;;;;;23.00;5.82;;;;;;;14.96;96.04;99347.63;4474007;32;20097;-80
2023/10/03 06:12:57;;;;;;;21.05;4.72;;;;;;;14.99;96.68;99342.03;4473904;32;20118;-81
2023/10/03 06:15:24;;;;;;;25.27;5.82;;;;;;;15.29;95.65;99349.69;4476185;31;20697;-82
2023/10/03 06:17:52;;;;;;;21.27;5.60;;;;;;;15.43;94.98;99357.91;4470320;32;20091;-83
2023/10/03 06:20:20;;;;;;;26.02;5.43;;;;;;;15.51;93.53;99362.41;4471775;32;20113;-82
2023/10/03 06:22:47;;;;;;;15.05;5.15;;;;;;;15.61;93.65;99355.22;4473406;31;20108;-82
2023/10/03 06:25:15;;;;;;;14.18;5.22;;;;;;;15.78;92.37;99356.19;4472139;32;20451;-82
2023/10/03 06:27:42;;;;;;;13.60;4.85;;;;;;;15.94;92.03;99359.88;4465751;32;20454;-81
2023/10/03 06:30:10;;;;;;;17.02;5.10;;;;;;;16.04;91.88;99357.97;4465882;32;20808;-82
2023/10/03 06:32:38;;;;;;;19.95;5.07;;;;;;;16.18;91.06;99356.53;4471052;31;20100;-83
2023/10/03 06:35:06;;;;;;;14.50;5.32;;;;;;;16.37;90.53;99363.41;4472510;31;20168;-80
2023/10/03 06:37:34;;;;;;;13.00;5.20;;;;;;;16.40;89.57;99363.09;4473980;32;20125;-82
2023/10/03 06:40:06;;;;;;;16.98;5.55;;;;;;;16.39;90.48;99353.47;4473550;32;20119;-84
2023/10/03 06:42:35;;;;;;;14.05;5.37;;;;;;;16.67;89.46;99364.66;4475584;31;20092;-81
2023/10/03 06:45:09;;;;;;;23.33;6.43;;;;;;;16.61;88.71;99364.47;4464272;32;20438;-81
2023/10/03 06:47:38;;;;;;;21.77;5.43;;;;;;;16.85;88.05;99359.22;4473627;31;20088;-80
2023/10/03 06:50:07;;;;;;;17.75;5.32;;;;;;;16.96;87.79;99355.47;4471772;32;20266;-81
2023/10/03 06:52:35;;;;;;;10.30;5.45;;;;;;;16.95;87.25;99358.28;4472161;31;20487;-80
2023/10/03 06:55:06;;;;;;;13.50;4.97;;;;;;;16.99;87.24;99356.97;4474541;32;20156;-81
2023/10/03 06:57:36;;;;;;;20.37;5.90;;;;;;;17.19;86.41;99357.47;4473226;31;20089;-82
2023/10/03 07:00:04;;;;;;;15.38;5.72;;;;;;;17.41;86.44;99371.88;4474208;32;20173;-82
2023/10/03 07:02:34;;;;;;;12.35;5.72;;;;;;;17.37;88.19;99359.94;4469650;32;20088;-82
2023/10/03 07:05:03;;;;;;;24.05;6.37;;;;;;;17.55;87.24;99351.81;4467053;32;20134;-82
2023/10/03 07:07:36;;;;;;;13.32;5.47;;;;;;;17.55;85.91;99350.00;4470804;32;20476;-84
2023/10/03 07:10:04;;;;;;;12.90;5.18;;;;;;;17.47;89.08;99362.41;4470688;32;20125;-86
2023/10/03 07:12:33;;;;;;;10.00;4.87;;;;;;;17.60;86.03;99359.25;4473456;32;20100;-88
2023/10/03 07:15:01;;;;;;;12.85;4.87;;;;;;;17.68;84.99;99364.53;4473107;32;20146;-84
2023/10/03 07:17:28;;;;;;;23.30;6.45;;;;;;;17.85;83.72;99368.81;4472148;32;20102;-82
2023/10/03 07:19:55;;;;;;;20.88;4.78;;;;;;;17.96;83.82;99364.19;4474316;32;20474;-83
2023/10/03 07:22:23;;;;;;;15.70;5.53;;;;;;;17.81;83.12;99362.19;4466499;32;21900;-85
2023/10/03 07:24:51;;;;;;;14.32;5.05;;;;;;;17.78;85.62;99367.84;4470558;32;20092;-81
2023/10/03 07:27:19;;;;;;;13.93;5.68;;;;;;;18.04;85.66;99370.28;4471191;32;20092;-86
2023/10/03 07:29:46;;;;;;;11.55;4.65;;;;;;;18.20;85.49;99371.25;4469345;32;20140;-81
2023/10/03 07:32:14;;;;;;;27.30;5.78;;;;;;;18.37;84.11;99379.94;4473134;32;20158;-80
2023/10/03 07:34:42;;;;;;;13.85;5.00;;;;;;;18.35;82.85;99373.97;4471829;32;20142;-78
2023/10/03 07:37:10;;;;;;;16.42;5.25;;;;;;;18.52;82.98;99367.59;4468992;31;21457;-78
2023/10/03 07:39:39;;;;;;;18.30;5.70;;;;;;;18.54;82.52;99370.91;4472729;31;20173;-78
2023/10/03 07:42:06;;;;;;;14.80;5.93;;;;;;;18.66;83.44;99367.87;4471595;31;20115;-78
2023/10/03 07:44:36;;;;;;;15.18;5.30;;;;;;;18.82;82.34;99372.25;4474809;31;20131;-78
2023/10/03 07:47:04;;;;;;;13.93;5.12;;;;;;;18.84;80.91;99373.72;4475462;31;20081;-79
2023/10/03 07:49:32;;;;;;;20.27;5.05;;;;;;;19.22;83.66;99375.66;4471254;31;20100;-80
2023/10/03 07:52:04;;;;;;;19.10;5.55;;;;;;;18.99;80.90;99378.31;4474982;31;20180;-79
2023/10/03 07:54:32;;;;;;;18.10;5.05;;;;;;;19.30;81.92;99381.72;4475019;32;20449;-79
2023/10/03 07:57:04;;;;;;;13.60;5.78;;;;;;;19.28;79.93;99377.59;4469255;31;20093;-78
2023/10/03 07:59:32;;;;;;;25.83;5.93;;;;;;;19.25;79.79;99381.44;4471059;31;20661;-77
2023/10/03 08:02:10;;;;;;;14.65;5.68;;;;;;;19.11;81.71;99380.38;4473806;31;20502;-77
2023/10/03 08:04:40;;;;;;;18.15;5.80;;;;;;;19.24;80.17;99385.09;4475048;31;20131;-78
2023/10/03 08:07:08;;;;;;;16.08;5.25;;;;;;;19.30;79.24;99379.06;4473303;31;20085;-77
2023/10/03 08:09:35;;;;;;;12.55;5.72;;;;;;;19.37;79.26;99387.16;4474252;32;20123;-77
2023/10/03 08:12:11;;;;;;;17.35;5.82;;;;;;;19.57;80.00;99387.47;4473980;31;20381;-78
2023/10/03 08:14:40;;;;;;;12.35;5.87;;;;;;;19.71;78.16;99385.84;4471200;31;20101;-78
2023/10/03 08:17:11;;;;;;;12.43;5.78;;;;;;;19.76;81.22;99375.50;4473092;32;20198;-78
2023/10/03 08:19:40;;;;;;;15.80;6.18;;;;;;;19.53;81.46;99378.22;4471765;31;20108;-78
2023/10/03 08:22:12;;;;;;;14.93;5.80;;;;;;;19.43;78.67;99370.50;4471569;32;20096;-78
2023/10/03 08:24:43;;;;;;;20.88;6.22;;;;;;;19.68;79.54;99376.41;4472327;31;20092;-77
2023/10/03 08:27:18;;;;;;;19.75;5.78;;;;;;;19.61;79.12;99383.44;4469910;31;20532;-78
2023/10/03 08:29:50;;;;;;;13.82;5.18;;;;;;;19.93;78.23;99370.03;4471244;31;20122;-76
2023/10/03 08:32:18;;;;;;;16.75;6.00;;;;;;;20.05;76.56;99375.75;4471472;32;20152;-76
2023/10/03 08:34:46;;;;;;;18.10;5.82;;;;;;;20.01;78.81;99369.94;4474122;32;20132;-78
2023/10/03 08:37:21;;;;;;;17.15;5.82;;;;;;;20.18;77.06;99370.56;4470203;32;20092;-81
2023/10/03 08:39:51;;;;;;;16.00;5.60;;;;;;;20.14;76.39;99366.66;4474183;31;20104;-80
2023/10/03 08:42:34;;;;;;;22.35;5.65;;;;;;;20.25;78.59;99360.84;4472750;32;20355;-80
2023/10/03 08:45:16;;;;;;;13.68;5.40;;;;;;;20.27;79.62;99365.97;4470505;32;20164;-81
2023/10/03 08:47:50;;;;;;;15.97;6.13;;;;;;;20.36;77.79;99368.37;4471020;32;20666;-80
2023/10/03 08:51:13;;;;;;;11.15;5.15;;;;;;;20.52;76.83;99377.16;4471597;32;20108;-79
2023/10/03 08:53:26;;;;;;;18.48;5.87;;;;;;;20.39;77.54;99365.34;4463436;32;20126;-79
2023/10/03 08:55:58;;;;;;;17.58;6.15;;;;;;;20.44;78.49;99364.78;4471162;32;21838;-77
2023/10/03 08:58:26;;;;;;;18.12;5.82;;;;;;;20.39;77.38;99362.69;4471479;31;20092;-77
2023/10/03 09:00:58;;;;;;;16.92;6.18;;;;;;;20.39;76.50;99354.69;4470132;32;20108;-78
2023/10/03 09:06:23;;;;;;;20.48;5.60;;;;;;;20.77;77.92;99351.03;4472321;32;20119;-80
2023/10/03 09:09:08;;;;;;;16.17;5.70;;;;;;;20.96;76.54;99346.91;4472074;32;20092;-79
2023/10/03 09:11:37;;;;;;;52.53;7.55;;;;;;;21.17;75.97;99350.59;4469693;32;20112;-79
2023/10/03 09:14:06;;;;;;;23.35;6.00;;;;;;;21.27;74.09;99348.41;4474314;31;20221;-79
2023/10/03 09:16:40;;;;;;;28.77;7.15;;;;;;;21.21;75.09;99349.19;4470677;31;20122;-79
2023/10/03 09:19:09;;;;;;;14.00;5.28;;;;;;;21.29;73.87;99346.41;4475349;31;20161;-79
2023/10/03 09:21:45;;;;;;;10.20;5.12;;;;;;;21.40;75.42;99345.84;4472888;31;20155;-79
2023/10/03 09:24:16;;;;;;;16.65;5.95;;;;;;;21.20;74.23;99339.56;4472610;32;20173;-79
2023/10/03 09:26:47;;;;;;;13.27;5.35;;;;;;;21.47;74.44;99337.09;4471365;32;20147;-79
2023/10/03 09:29:29;;;;;;;13.60;5.68;;;;;;;21.59;74.08;99325.75;4464623;31;20085;-80
2023/10/03 09:32:17;;;;;;;18.37;5.18;;;;;;;21.76;72.96;99325.44;4469556;32;20184;-79
2023/10/03 09:34:46;;;;;;;10.13;4.78;;;;;;;21.93;73.57;99332.06;4469063;32;20197;-80
2023/10/03 09:37:17;;;;;;;11.07;5.12;;;;;;;22.11;72.82;99323.56;4468397;32;20101;-79
2023/10/03 09:39:51;;;;;;;80.25;8.10;;;;;;;22.28;73.92;99323.22;4470118;32;20104;-80
2023/10/03 09:42:19;;;;;;;49.72;7.60;;;;;;;22.48;72.99;99329.47;4476788;31;20160;-81
2023/10/03 09:44:51;;;;;;;57.50;5.72;;;;;;;22.58;69.74;99322.94;4473490;31;20117;-84
2023/10/03 09:47:19;;;;;;;50.30;6.43;;;;;;;22.44;69.57;99328.22;4469061;31;20092;-83
2023/10/03 09:49:47;;;;;;;59.72;6.15;;;;;;;22.97;68.32;99321.38;4472807;32;20161;-82
2023/10/03 09:52:26;;;;;;;23.52;4.70;;;;;;;22.83;67.91;99321.34;4472615;31;20097;-83
2023/10/03 09:54:54;;;;;;;47.78;5.60;;;;;;;22.77;66.57;99324.81;4475594;32;20115;-82
2023/10/03 09:57:22;;;;;;;48.20;6.95;;;;;;;23.03;67.63;99317.88;4469191;32;20114;-79
2023/10/03 09:59:50;;;;;;;48.63;5.18;;;;;;;23.17;66.96;99319.53;4471099;32;20092;-81
2023/10/03 10:02:30;;;;;;;17.17;4.07;;;;;;;23.09;66.63;99318.88;4469640;32;20230;-81
2023/10/03 10:05:08;;;;;;;167.95;13.13;;;;;;;23.43;65.37;99330.44;4469025;32;20083;-80
2023/10/03 10:08:06;;;;;;;8.73;3.60;;;;;;;23.83;64.56;99320.50;4466798;32;20492;-82
2023/10/03 10:10:35;;;;;;;43.90;5.68;;;;;;;23.93;62.73;99309.34;4469550;31;20130;-83
2023/10/03 10:13:13;;;;;;;12.25;4.60;;;;;;;24.00;63.37;99309.34;4475781;31;20096;-81
2023/10/03 10:16:20;;;;;;;168.90;11.77;;;;;;;24.04;63.02;99299.84;4479109;31;20092;-85
2023/10/03 10:18:51;;;;;;;20.23;3.75;;;;;;;23.96;62.01;99300.09;4480941;32;20101;-81
2023/10/03 10:21:37;;;;;;;9.63;3.50;;;;;;;23.84;63.41;99303.38;4479488;31;20156;-82
2023/10/03 10:24:40;;;;;;;43.05;5.32;;;;;;;23.72;62.35;99297.88;4473371;31;20101;-80
2023/10/03 10:26:59;;;;;;;7.75;3.15;;;;;;;23.46;62.35;99293.38;4473975;32;20096;-82
2023/10/03 10:29:34;;;;;;;79.82;6.95;;;;;;;23.89;63.35;99298.28;4475161;31;20839;-79
2023/10/03 10:32:17;;;;;;;27.80;4.57;;;;;;;24.01;62.84;99297.59;4477036;32;20076;-77
2023/10/03 10:34:46;;;;;;;18.13;4.17;;;;;;;24.07;60.13;99297.59;4477140;31;20210;-81
2023/10/03 10:37:18;;;;;;;19.55;3.87;;;;;;;24.02;60.69;99296.56;4479529;31;20229;-82
2023/10/03 10:40:04;;;;;;;12.25;3.22;;;;;;;23.96;59.83;99289.38;4479279;31;20096;-84
2023/10/03 10:42:56;;;;;;;10.93;3.65;;;;;;;24.30;60.31;99292.72;4478457;32;20106;-77
2023/10/03 10:45:23;;;;;;;8.93;3.25;;;;;;;24.74;61.34;99283.00;4477195;32;20162;-80
2023/10/03 10:47:51;;;;;;;7.53;2.75;;;;;;;24.75;58.27;99290.03;4475661;32;20123;-81
2023/10/03 10:50:25;;;;;;;9.85;2.58;;;;;;;24.86;58.34;99289.34;4473360;32;20176;-79
2023/10/03 10:52:57;;;;;;;13.57;2.85;;;;;;;24.95;57.04;99273.78;4473927;32;20484;-78
2023/10/03 10:55:26;;;;;;;13.75;2.97;;;;;;;25.03;56.44;99280.75;4475431;31;21629;-79
2023/10/03 10:58:12;;;;;;;17.98;3.45;;;;;;;24.93;57.28;99279.38;4474303;32;20111;-80
2023/10/03 11:00:41;;;;;;;8.88;2.67;;;;;;;25.07;57.10;99279.25;4475757;32;20163;-79
2023/10/03 11:03:10;;;;;;;8.88;2.72;;;;;;;25.27;55.78;99277.25;4474541;32;20099;-80
2023/10/03 11:05:41;;;;;;;16.10;3.25;;;;;;;25.17;55.72;99271.53;4483193;31;20110;-82
2023/10/03 11:08:09;;;;;;;18.55;3.22;;;;;;;25.36;54.90;99267.09;4477141;31;20126;-80
2023/10/03 11:10:53;;;;;;;40.05;4.60;;;;;;;25.22;56.29;99263.66;4480901;32;20085;-82
2023/10/03 11:13:21;;;;;;;27.45;5.15;;;;;;;24.98;56.52;99257.25;4481409;31;20100;-81
2023/10/03 11:15:49;;;;;;;37.95;4.07;;;;;;;24.39;57.27;99253.94;4477563;31;20165;-83
2023/10/03 11:18:18;;;;;;;89.00;6.45;;;;;;;24.35;58.23;99255.44;4480330;31;20092;-81
2023/10/03 11:20:47;;;;;;;17.85;3.45;;;;;;;24.72;57.88;99258.31;4476785;32;20126;-81
2023/10/03 11:23:16;;;;;;;10.68;3.22;;;;;;;25.05;56.67;99257.22;4475503;32;20096;-83
2023/10/03 11:26:12;;;;;;;28.00;3.35;;;;;;;25.31;55.38;99240.94;4476718;31;20176;-82
2023/10/03 11:28:48;;;;;;;87.80;5.78;;;;;;;24.84;56.30;99242.34;4472648;31;21999;-80
2023/10/03 11:31:17;;;;;;;24.65;3.20;;;;;;;24.78;55.23;99246.72;4472881;32;20511;-81
2023/10/03 11:33:48;;;;;;;134.90;10.45;;;;;;;24.61;56.58;99239.22;4468356;31;20164;-80
2023/10/03 11:36:15;;;;;;;20.80;2.83;;;;;;;24.61;55.71;99241.88;4469733;31;20517;-81
2023/10/03 11:38:49;;;;;;;13.05;2.65;;;;;;;24.67;56.61;99234.84;4475229;31;20642;-80
2023/10/03 11:41:30;;;;;;;14.82;2.80;;;;;;;24.60;56.17;99232.22;4478618;32;20430;-78
2023/10/03 11:43:57;;;;;;;4.95;2.40;;;;;;;24.64;56.75;99227.25;4478694;31;20084;-79